Time;durP1;ratioP1;P1;durP2;ratioP2;P2;SDS_P1;SDS_P2;PMS_P1;PMS_P2;Temp;Humidity;BMP_temperature;BMP_pressure;BME280_temperature;BME280_humidity;BME280_pressure;Samples;Min_cycle;Max_cycle;Signal;HPM_P1;HPM_P2
2022/04/02 00:01:33;;;;;;;5.60;4.90;;;;;;;1.48;71.92;99012.28;105752;1277;22722;-80
2022/04/02 00:04:00;;;;;;;5.70;5.00;;;;;;;1.46;71.76;99018.16;106156;1277;24250;-79
2022/04/02 00:06:27;;;;;;;6.50;5.50;;;;;;;1.45;71.78;99015.20;105221;1284;24064;-77
2022/04/02 00:08:55;;;;;;;6.70;6.00;;;;;;;1.45;71.91;99012.27;105279;1281;22576;-79
2022/04/02 00:11:22;;;;;;;5.60;4.70;;;;;;;1.43;71.94;99008.77;104817;1288;22624;-79
2022/04/02 00:13:49;;;;;;;8.30;5.20;;;;;;;1.42;71.76;99008.61;105000;1287;22550;-78
2022/04/02 00:16:16;;;;;;;7.10;5.00;;;;;;;1.37;71.77;99011.88;104746;1288;25498;-80
2022/04/02 00:18:43;;;;;;;7.50;5.40;;;;;;;1.38;72.06;99012.75;104359;1291;22580;-79
2022/04/02 00:21:11;;;;;;;6.10;4.30;;;;;;;1.40;72.19;99013.80;104916;1287;24350;-79
2022/04/02 00:23:40;;;;;;;10.30;5.80;;;;;;;1.41;71.98;99013.98;104493;1291;25429;-77
2022/04/02 00:26:16;;;;;;;7.00;4.90;;;;;;;1.47;72.30;99007.42;105121;1285;24238;-77
2022/04/02 00:28:44;;;;;;;6.70;5.30;;;;;;;1.56;72.07;99004.70;105132;1284;22544;-78
2022/04/02 00:31:13;;;;;;;7.10;5.50;;;;;;;1.55;71.87;99004.16;105741;1279;22538;-79
2022/04/02 00:33:43;;;;;;;5.90;4.90;;;;;;;1.54;71.80;99005.20;105176;1285;22861;-78
2022/04/02 00:36:11;;;;;;;5.20;4.70;;;;;;;1.55;71.73;99002.95;105058;1282;22540;-77
2022/04/02 00:38:40;;;;;;;6.60;5.10;;;;;;;1.49;71.54;99005.69;105290;1282;22550;-79
2022/04/02 00:41:08;;;;;;;6.90;5.20;;;;;;;1.45;71.70;99004.63;105237;1277;24323;-79
2022/04/02 00:43:39;;;;;;;4.90;4.30;;;;;;;1.46;71.73;99003.60;105222;1284;23781;-78
2022/04/02 00:46:11;;;;;;;5.40;4.30;;;;;;;1.38;71.46;99008.59;105578;1281;22626;-80
2022/04/02 00:48:40;;;;;;;6.50;4.80;;;;;;;1.33;71.65;99005.79;105049;1287;22541;-78
2022/04/02 00:51:11;;;;;;;6.00;4.60;;;;;;;1.38;71.70;99013.96;105181;1281;25247;-76
2022/04/02 00:53:42;;;;;;;7.60;5.00;;;;;;;1.44;71.68;99013.48;105208;1281;25248;-75
2022/04/02 00:56:09;;;;;;;5.90;4.70;;;;;;;1.42;71.40;99012.24;105248;1281;23948;-77
2022/04/02 00:58:39;;;;;;;5.00;4.50;;;;;;;1.33;71.20;99009.77;105296;1281;24772;-77
2022/04/02 01:01:10;;;;;;;7.20;5.20;;;;;;;1.19;71.44;99005.52;105412;1278;24211;-82
2022/04/02 01:03:38;;;;;;;5.40;4.70;;;;;;;1.21;71.80;99009.52;105956;1276;24965;-81
2022/04/02 01:06:09;;;;;;;7.30;5.00;;;;;;;1.25;71.78;99009.89;105903;1273;22973;-80
2022/04/02 01:08:38;;;;;;;5.00;4.30;;;;;;;1.23;71.65;99007.45;106515;1270;25297;-79
2022/04/02 01:11:07;;;;;;;5.00;4.20;;;;;;;1.21;71.47;99008.65;106317;1270;24492;-81
2022/04/02 01:13:35;;;;;;;5.60;4.40;;;;;;;1.21;71.50;99004.83;106395;1270;25241;-77
2022/04/02 01:16:05;;;;;;;9.70;4.00;;;;;;;1.18;71.46;99010.89;106349;1270;25409;-78
2022/04/02 01:18:33;;;;;;;6.70;4.40;;;;;;;1.19;71.65;99009.84;106388;1270;22607;-79
2022/04/02 01:21:01;;;;;;;4.90;4.30;;;;;;;1.21;71.48;99012.98;106455;1270;25521;-79
2022/04/02 01:23:35;;;;;;;6.50;4.70;;;;;;;1.09;71.14;99014.29;106265;1270;22545;-78
2022/04/02 01:26:06;;;;;;;7.50;5.00;;;;;;;1.07;71.59;99016.18;106269;1271;22571;-77
2022/04/02 01:28:37;;;;;;;6.20;4.30;;;;;;;1.06;71.54;99012.02;106391;1270;22926;-77
2022/04/02 01:31:07;;;;;;;5.30;4.80;;;;;;;1.01;71.37;99008.33;106438;1270;22676;-77
2022/04/02 01:33:36;;;;;;;5.80;4.80;;;;;;;0.98;71.71;99008.66;106337;1270;22602;-78
2022/04/02 01:36:06;;;;;;;5.60;4.70;;;;;;;1.03;71.79;99006.79;106278;1270;22747;-80
2022/04/02 01:38:47;;;;;;;6.40;4.80;;;;;;;1.09;71.67;99005.80;105994;1273;24681;-76
2022/04/02 01:41:15;;;;;;;7.70;5.00;;;;;;;1.12;71.71;99005.30;106139;1273;22652;-79
2022/04/02 01:43:43;;;;;;;5.10;4.50;;;;;;;1.19;71.72;99005.67;105943;1273;25302;-80
2022/04/02 01:46:11;;;;;;;5.20;4.60;;;;;;;1.20;71.56;99003.60;106088;1273;25342;-77
2022/04/02 01:48:39;;;;;;;5.00;4.20;;;;;;;1.21;71.26;99007.09;106083;1273;22536;-78
2022/04/02 01:51:08;;;;;;;5.30;4.70;;;;;;;1.16;71.07;99008.96;106260;1273;23307;-77
2022/04/02 01:53:35;;;;;;;4.20;3.80;;;;;;;1.12;71.13;99012.77;106028;1273;26593;-77
2022/04/02 01:56:09;;;;;;;5.10;4.30;;;;;;;1.09;71.04;99012.21;106088;1273;22544;-80
2022/04/02 01:58:44;;;;;;;4.40;4.00;;;;;;;0.98;71.02;99013.87;106020;1276;25233;-80
2022/04/02 02:01:14;;;;;;;4.60;4.20;;;;;;;1.00;71.31;99015.79;106196;1273;22557;-77
2022/04/02 02:03:42;;;;;;;5.30;4.40;;;;;;;1.01;71.32;99010.94;106557;1273;22565;-79
2022/04/02 02:06:10;;;;;;;4.40;3.90;;;;;;;1.08;71.33;99010.30;107032;1276;22480;-77
2022/04/02 02:08:42;;;;;;;5.80;3.60;;;;;;;1.09;71.27;99013.43;106456;1276;25354;-75
2022/04/02 02:11:27;;;;;;;4.70;3.90;;;;;;;1.12;71.17;99012.40;106631;1276;22709;-78
2022/04/02 02:14:03;;;;;;;6.00;3.90;;;;;;;1.17;71.45;99013.31;106114;1276;22567;-77
2022/04/02 02:16:31;;;;;;;4.60;3.90;;;;;;;1.23;71.18;99012.48;106073;1270;22783;-78
2022/04/02 02:18:58;;;;;;;4.30;3.60;;;;;;;1.19;70.59;99011.59;106312;1270;22688;-80
2022/04/02 02:21:26;;;;;;;5.50;4.20;;;;;;;1.16;71.08;99011.91;106365;1270;23908;-74
2022/04/02 02:23:53;;;;;;;4.30;3.80;;;;;;;1.17;70.72;99009.65;106253;1270;22622;-74
2022/04/02 02:26:20;;;;;;;5.10;3.90;;;;;;;1.10;70.76;99012.22;106312;1270;24199;-75
2022/04/02 02:28:48;;;;;;;4.20;3.70;;;;;;;1.04;70.73;99014.77;106276;1270;24429;-78
2022/04/02 02:31:25;;;;;;;3.90;3.30;;;;;;;1.01;70.96;99013.70;106481;1270;25162;-77
2022/04/02 02:36:43;;;;;;;6.50;3.50;;;;;;;0.98;70.98;99017.68;106194;1270;25358;-77
2022/04/02 02:39:12;;;;;;;4.90;3.70;;;;;;;1.00;71.11;99017.52;105982;1276;22591;-75
2022/04/02 02:41:53;;;;;;;3.70;3.00;;;;;;;0.98;70.99;99021.31;105948;1276;25253;-72
2022/04/02 02:44:32;;;;;;;5.50;3.70;;;;;;;0.88;70.95;99020.55;105936;1274;22563;-78
2022/04/02 02:47:09;;;;;;;4.00;3.50;;;;;;;0.86;71.32;99017.93;105868;1276;25258;-80
2022/04/02 02:49:38;;;;;;;4.40;3.90;;;;;;;0.80;71.12;99015.97;105727;1274;25310;-79
2022/04/02 02:52:08;;;;;;;4.10;3.20;;;;;;;0.78;71.39;99018.04;105895;1276;26499;-75
2022/04/02 02:54:35;;;;;;;4.00;3.20;;;;;;;0.85;71.70;99018.28;105762;1276;24205;-75
2022/04/02 02:57:03;;;;;;;4.30;3.10;;;;;;;0.88;71.38;99018.80;105895;1273;25252;-75
2022/04/02 02:59:30;;;;;;;4.70;3.20;;;;;;;0.91;71.47;99020.75;105832;1277;22724;-77
2022/04/02 03:01:58;;;;;;;4.70;3.30;;;;;;;0.92;71.33;99020.92;105415;1281;25247;-75
2022/04/02 03:04:25;;;;;;;3.70;3.20;;;;;;;0.86;71.06;99022.79;105196;1282;22587;-74
2022/04/02 03:06:57;;;;;;;3.40;3.10;;;;;;;0.85;71.28;99028.67;105647;1281;26510;-74
2022/04/02 03:09:25;;;;;;;3.80;3.30;;;;;;;0.75;71.30;99026.86;105498;1281;25316;-75
2022/04/02 03:11:52;;;;;;;3.60;3.00;;;;;;;0.66;71.29;99025.73;105341;1281;25406;-76
2022/04/02 03:14:19;;;;;;;4.90;4.10;;;;;;;0.60;71.66;99024.29;105272;1282;22608;-79
2022/04/02 03:16:46;;;;;;;3.20;2.80;;;;;;;0.64;71.75;99024.16;105376;1282;25339;-75
2022/04/02 03:19:16;;;;;;;4.10;3.30;;;;;;;0.64;71.58;99026.77;105752;1272;25234;-76
2022/04/02 03:21:43;;;;;;;3.90;3.20;;;;;;;0.62;71.78;99027.09;106565;1268;25225;-78
2022/04/02 03:24:11;;;;;;;3.20;2.90;;;;;;;0.64;71.93;99030.04;106101;1271;25286;-79
2022/04/02 03:26:38;;;;;;;4.30;3.30;;;;;;;0.62;71.79;99031.75;106200;1270;25408;-79
2022/04/02 03:29:12;;;;;;;3.40;3.10;;;;;;;0.67;71.98;99027.81;106050;1270;25237;-82
2022/04/02 03:31:40;;;;;;;3.60;3.30;;;;;;;0.73;72.07;99026.83;106199;1270;25293;-82
2022/04/02 03:34:08;;;;;;;3.40;2.80;;;;;;;0.72;71.74;99028.21;106202;1270;22604;-78
2022/04/02 03:36:35;;;;;;;3.50;2.80;;;;;;;0.65;71.77;99026.23;106128;1270;25448;-80
2022/04/02 03:39:03;;;;;;;3.30;2.90;;;;;;;0.62;71.96;99025.69;105865;1278;23930;-79
2022/04/02 03:41:30;;;;;;;5.50;3.40;;;;;;;0.61;71.73;99029.48;105405;1281;24062;-80
2022/04/02 03:44:00;;;;;;;4.50;2.80;;;;;;;0.52;71.77;99025.77;105436;1281;25496;-78
2022/04/02 03:49:17;;;;;;;3.80;2.90;;;;;;;0.54;72.46;99023.90;105324;1281;23598;-79
2022/04/02 03:51:44;;;;;;;3.70;3.40;;;;;;;0.61;72.47;99027.24;105288;1282;25594;-79
2022/04/02 03:54:15;;;;;;;4.90;3.50;;;;;;;0.68;72.43;99028.70;105248;1281;24624;-80
2022/04/02 03:56:46;;;;;;;3.50;3.20;;;;;;;0.71;72.20;99029.59;105468;1276;23956;-80
2022/04/02 03:59:14;;;;;;;3.80;3.30;;;;;;;0.65;72.00;99030.05;105930;1270;25235;-78
2022/04/02 04:01:44;;;;;;;4.10;3.40;;;;;;;0.67;72.09;99032.50;106300;1270;25459;-74
2022/04/02 04:04:13;;;;;;;3.70;3.40;;;;;;;0.70;72.07;99032.86;106217;1270;25238;-76
2022/04/02 04:06:41;;;;;;;4.60;3.20;;;;;;;0.63;71.88;99033.85;106280;1270;25196;-76
2022/04/02 04:09:09;;;;;;;4.80;3.40;;;;;;;0.60;71.98;99033.65;106292;1270;25350;-77
2022/04/02 04:11:38;;;;;;;6.30;3.00;;;;;;;0.63;72.14;99036.45;106264;1270;25370;-76
2022/04/02 04:14:05;;;;;;;3.80;3.50;;;;;;;0.65;71.96;99035.78;106263;1270;22527;-79
2022/04/02 04:16:32;;;;;;;3.50;3.20;;;;;;;0.67;72.15;99040.47;106160;1270;25230;-77
2022/04/02 04:19:00;;;;;;;3.90;3.10;;;;;;;0.74;72.12;99036.89;106392;1270;25373;-78
2022/04/02 04:21:27;;;;;;;3.90;3.40;;;;;;;0.73;71.89;99037.06;106246;1270;24765;-76
2022/04/02 04:23:54;;;;;;;4.30;3.20;;;;;;;0.71;71.86;99038.95;106198;1272;25230;-79
2022/04/02 04:26:21;;;;;;;3.40;3.10;;;;;;;0.68;71.64;99037.54;105933;1276;25222;-77
2022/04/02 04:28:48;;;;;;;4.70;3.70;;;;;;;0.58;71.77;99036.39;105859;1276;25387;-79
2022/04/02 04:31:18;;;;;;;5.00;3.70;;;;;;;0.59;72.04;99040.21;105806;1276;25195;-81
2022/04/02 04:33:47;;;;;;;4.60;3.30;;;;;;;0.60;71.91;99040.05;105778;1276;25359;-78
2022/04/02 04:36:15;;;;;;;4.10;2.70;;;;;;;0.62;71.92;99043.54;105771;1276;24254;-79
2022/04/02 04:38:43;;;;;;;4.20;3.20;;;;;;;0.65;71.86;99044.09;105876;1276;23936;-75
2022/04/02 04:41:17;;;;;;;3.50;3.10;;;;;;;0.68;71.68;99046.21;105894;1276;25319;-75
2022/04/02 04:43:50;;;;;;;3.50;2.90;;;;;;;0.65;71.60;99049.47;105995;1271;25177;-76
2022/04/02 04:46:20;;;;;;;3.30;3.00;;;;;;;0.65;71.55;99046.68;106465;1273;22657;-80
2022/04/02 04:48:50;;;;;;;4.00;3.30;;;;;;;0.64;71.46;99054.31;106570;1270;25367;-74
2022/04/02 04:51:19;;;;;;;2.70;2.50;;;;;;;0.57;71.21;99056.14;106933;1270;25301;-80
2022/04/02 04:53:50;;;;;;;4.20;2.40;;;;;;;0.46;71.16;99057.59;106719;1270;25839;-76
2022/04/02 04:56:18;;;;;;;3.00;2.70;;;;;;;0.34;71.13;99061.96;107409;1273;26001;-78
2022/04/02 04:58:46;;;;;;;4.00;3.00;;;;;;;0.30;71.49;99060.88;106851;1270;22704;-78
2022/04/02 05:01:14;;;;;;;2.90;2.50;;;;;;;0.27;71.57;99058.78;106524;1271;22596;-79
2022/04/02 05:03:41;;;;;;;4.80;2.70;;;;;;;0.25;71.60;99067.59;106507;1273;25287;-77
2022/04/02 05:06:13;;;;;;;3.20;2.80;;;;;;;0.32;71.90;99067.48;106925;1273;22597;-81
2022/04/02 05:08:42;;;;;;;3.00;2.40;;;;;;;0.35;71.82;99066.84;107137;1273;25285;-77
2022/04/02 05:11:10;;;;;;;3.10;2.80;;;;;;;0.39;71.57;99068.42;106751;1273;214512;-77
2022/04/02 05:13:45;;;;;;;4.40;2.90;;;;;;;0.34;71.54;99069.59;107187;1270;22479;-76
2022/04/02 05:16:17;;;;;;;2.90;2.50;;;;;;;0.26;71.33;99073.83;106453;1270;23873;-77
2022/04/02 05:18:47;;;;;;;4.00;2.90;;;;;;;0.17;71.40;99069.23;106874;1270;24073;-80
2022/04/02 05:21:16;;;;;;;4.50;3.20;;;;;;;0.14;71.65;99074.90;106387;1270;26554;-78
2022/04/02 05:23:44;;;;;;;4.60;3.50;;;;;;;0.15;71.75;99072.66;106293;1270;25403;-77
2022/04/02 05:26:11;;;;;;;5.80;2.90;;;;;;;0.09;71.62;99068.09;106473;1270;25831;-79
2022/04/02 05:28:40;;;;;;;4.40;2.70;;;;;;;0.12;72.04;99077.64;106252;1273;25295;-78
2022/04/02 05:31:08;;;;;;;4.80;3.00;;;;;;;0.22;71.96;99075.70;106215;1271;24425;-79
2022/04/02 05:33:38;;;;;;;4.60;3.40;;;;;;;0.27;71.91;99075.23;106259;1270;24282;-76
2022/04/02 05:36:08;;;;;;;4.30;3.40;;;;;;;0.29;71.69;99082.86;106106;1270;25307;-76
2022/04/02 05:38:35;;;;;;;4.20;3.20;;;;;;;0.30;71.85;99077.50;106172;1270;24289;-80
2022/04/02 05:41:02;;;;;;;4.10;3.00;;;;;;;0.38;71.99;99081.41;106382;1270;24220;-81
2022/04/02 05:43:30;;;;;;;4.20;3.10;;;;;;;0.43;71.48;99082.52;106209;1273;23951;-86
2022/04/02 05:45:57;;;;;;;4.10;3.70;;;;;;;0.34;71.38;99085.53;106128;1271;22549;-80
2022/04/02 05:48:25;;;;;;;4.50;3.40;;;;;;;0.33;71.64;99085.85;105965;1270;24425;-88
2022/04/02 05:50:52;;;;;;;4.30;3.00;;;;;;;0.39;71.67;99088.68;106154;1272;22690;-78
2022/04/02 05:53:19;;;;;;;5.50;2.70;;;;;;;0.47;71.62;99089.13;106133;1270;22568;-78
2022/04/02 05:55:50;;;;;;;3.40;3.00;;;;;;;0.51;71.22;99092.30;106194;1270;25343;-78
2022/04/02 05:58:17;;;;;;;5.90;3.20;;;;;;;0.39;70.86;99095.96;106319;1271;23173;-78
2022/04/02 06:00:44;;;;;;;3.40;2.70;;;;;;;0.38;71.06;99099.41;106258;1270;25586;-81
2022/04/02 06:03:15;;;;;;;5.80;3.80;;;;;;;0.38;71.24;99100.47;105976;1276;23928;-84
2022/04/02 06:05:44;;;;;;;4.80;3.20;;;;;;;0.42;71.15;99104.31;106110;1276;25479;-79
2022/04/02 06:08:11;;;;;;;3.60;3.10;;;;;;;0.31;70.74;99101.94;105973;1276;22670;-80
2022/04/02 06:10:38;;;;;;;4.70;3.50;;;;;;;0.23;70.73;99104.09;106057;1276;24354;-83
2022/04/02 06:13:05;;;;;;;3.10;2.80;;;;;;;0.19;71.02;99108.73;106304;1276;26607;-80
2022/04/02 06:15:33;;;;;;;3.60;2.90;;;;;;;0.19;71.02;99111.15;105839;1276;23067;-82
2022/04/02 06:18:00;;;;;;;5.00;3.30;;;;;;;0.22;71.33;99111.02;105781;1276;22547;-82
2022/04/02 06:20:27;;;;;;;3.20;2.60;;;;;;;0.28;71.30;99111.95;105745;1270;25086;-85
2022/04/02 06:22:54;;;;;;;5.40;3.20;;;;;;;0.27;71.48;99110.20;106011;1274;25678;-80
2022/04/02 06:25:21;;;;;;;4.50;3.40;;;;;;;0.35;71.10;99115.32;105461;1280;25402;-80
2022/04/02 06:27:49;;;;;;;4.10;3.00;;;;;;;0.37;71.25;99114.65;105246;1280;22561;-79
2022/04/02 06:30:21;;;;;;;3.80;2.80;;;;;;;0.43;71.11;99118.02;105734;1280;24217;-80
2022/04/02 06:32:56;;;;;;;5.00;2.60;;;;;;;0.38;70.78;99116.57;105601;1280;22693;-81
2022/04/02 06:35:24;;;;;;;4.20;3.10;;;;;;;0.39;71.10;99118.13;105792;1280;22556;-80
2022/04/02 06:37:53;;;;;;;4.70;3.30;;;;;;;0.45;71.26;99122.71;105666;1280;22539;-80
2022/04/02 06:40:25;;;;;;;4.40;3.30;;;;;;;0.50;71.05;99122.42;105694;1276;22747;-82
2022/04/02 06:42:52;;;;;;;4.10;3.10;;;;;;;0.51;70.65;99127.11;105857;1273;22688;-81
2022/04/02 06:45:39;;;;;;;5.60;3.00;;;;;;;0.45;70.64;99128.95;106229;1271;25520;-82
2022/04/02 06:48:07;;;;;;;4.20;2.90;;;;;;;0.47;70.92;99127.23;106037;1272;22564;-82
2022/04/02 06:50:35;;;;;;;3.30;2.80;;;;;;;0.56;70.90;99132.89;106161;1270;22847;-82
2022/04/02 06:53:03;;;;;;;4.10;2.80;;;;;;;0.68;70.74;99137.17;106323;1270;22535;-80
2022/04/02 06:55:32;;;;;;;5.10;3.30;;;;;;;0.69;70.55;99134.59;106336;1272;22565;-81
2022/04/02 06:58:00;;;;;;;4.50;2.80;;;;;;;0.78;70.55;99134.84;106139;1270;25457;-80
2022/04/02 07:00:29;;;;;;;5.30;3.90;;;;;;;0.86;70.51;99140.31;106303;1273;24252;-82
2022/04/02 07:02:57;;;;;;;5.20;3.10;;;;;;;0.89;70.14;99138.27;106279;1270;23923;-80
2022/04/02 07:05:25;;;;;;;4.60;3.20;;;;;;;0.86;69.64;99141.17;106333;1272;24220;-81
2022/04/02 07:07:52;;;;;;;5.80;3.90;;;;;;;0.74;69.83;99140.35;106266;1270;24260;-81
2022/04/02 07:10:19;;;;;;;4.50;3.30;;;;;;;0.74;69.84;99141.05;106216;1271;22846;-81
2022/04/02 07:12:47;;;;;;;4.80;3.60;;;;;;;0.79;70.09;99140.05;106577;1273;25283;-88
2022/04/02 07:15:15;;;;;;;6.30;3.90;;;;;;;0.85;69.98;99141.16;106211;1278;25366;-86
2022/04/02 07:17:43;;;;;;;4.70;2.80;;;;;;;0.83;69.74;99137.66;106452;1278;22560;-85
2022/04/02 07:20:13;;;;;;;5.20;3.60;;;;;;;0.78;69.86;99143.01;105894;1280;24361;-84
2022/04/02 07:22:41;;;;;;;6.40;3.60;;;;;;;0.74;69.68;99142.08;106534;1280;25435;-80
2022/04/02 07:25:09;;;;;;;5.50;4.10;;;;;;;0.72;70.01;99138.77;105850;1280;24287;-81
2022/04/02 07:27:38;;;;;;;5.00;3.80;;;;;;;0.73;69.73;99143.80;106011;1280;24235;-80
2022/04/02 07:30:07;;;;;;;3.90;3.40;;;;;;;0.76;70.05;99141.08;105963;1280;25366;-78
2022/04/02 07:32:34;;;;;;;4.20;3.50;;;;;;;0.75;70.56;99141.40;106232;1277;22552;-86
2022/04/02 07:35:02;;;;;;;4.40;3.30;;;;;;;0.82;70.74;99143.38;107657;1276;25315;-80
2022/04/02 07:38:02;;;;;;;5.00;3.90;;;;;;;0.83;70.05;99144.25;108095;1271;22550;-78
2022/04/02 07:40:49;;;;;;;6.90;4.30;;;;;;;0.84;70.04;99146.52;108819;1270;22565;-88
2022/04/02 07:43:48;;;;;;;7.50;3.70;;;;;;;0.90;70.04;99149.19;108802;1270;22593;-79
2022/04/02 07:46:21;;;;;;;4.10;3.40;;;;;;;1.05;70.12;99152.44;108929;1270;22705;-79
2022/04/02 07:48:49;;;;;;;4.90;3.90;;;;;;;1.16;70.01;99151.16;109189;1270;22795;-80
2022/04/02 07:51:30;;;;;;;6.70;3.90;;;;;;;1.21;69.48;99148.09;108163;1271;22618;-79
2022/04/02 07:54:02;;;;;;;4.90;3.90;;;;;;;1.24;69.47;99154.70;107849;1271;25346;-81
2022/04/02 07:56:38;;;;;;;5.90;3.90;;;;;;;1.31;69.41;99157.89;107469;1270;22597;-78
2022/04/02 07:59:17;;;;;;;4.70;3.40;;;;;;;1.38;69.13;99161.94;108284;1270;24598;-76
2022/04/02 08:01:49;;;;;;;6.60;4.60;;;;;;;1.34;68.83;99163.64;108298;1270;24422;-80
2022/04/02 08:04:18;;;;;;;6.60;4.60;;;;;;;1.35;68.96;99164.87;108429;1269;22523;-78
2022/04/02 08:06:49;;;;;;;6.60;4.20;;;;;;;1.42;69.04;99167.00;107141;1270;24250;-80
2022/04/02 08:09:20;;;;;;;4.90;3.80;;;;;;;1.49;68.97;99164.45;107244;1270;25209;-80
2022/04/02 08:11:51;;;;;;;7.00;4.60;;;;;;;1.62;68.95;99167.50;107850;1270;22630;-78
2022/04/02 08:14:18;;;;;;;5.90;3.90;;;;;;;1.74;68.88;99172.10;107746;1275;22728;-77
2022/04/02 08:16:48;;;;;;;4.20;3.60;;;;;;;1.78;68.33;99172.84;108682;1274;22561;-80
2022/04/02 08:19:22;;;;;;;6.70;5.00;;;;;;;1.79;68.41;99176.14;108793;1274;25948;-82
2022/04/02 08:21:50;;;;;;;7.00;4.50;;;;;;;1.84;68.37;99175.98;108395;1275;22613;-84
2022/04/02 08:24:18;;;;;;;4.70;3.80;;;;;;;1.98;68.33;99180.25;108748;1275;22558;-82
2022/04/02 08:27:11;;;;;;;4.80;4.00;;;;;;;1.98;67.55;99184.08;108987;1274;22592;-86
2022/04/02 08:30:11;;;;;;;5.80;4.10;;;;;;;1.86;67.40;99183.30;108827;1274;24257;-85
2022/04/02 08:33:18;;;;;;;6.80;4.60;;;;;;;1.89;67.63;99181.92;109013;1274;22566;-85
2022/04/02 08:35:56;;;;;;;5.40;4.60;;;;;;;1.97;67.68;99185.46;108061;1281;22809;-87
2022/04/02 08:38:42;;;;;;;5.00;4.10;;;;;;;1.95;67.30;99189.61;107491;1281;25267;-86
2022/04/02 08:41:41;;;;;;;8.10;4.90;;;;;;;1.95;67.65;99188.57;107503;1281;22677;-84
2022/04/02 08:44:46;;;;;;;6.70;4.50;;;;;;;2.07;67.36;99186.90;106655;1281;25285;-82
2022/04/02 08:47:24;;;;;;;6.60;4.20;;;;;;;2.06;68.09;99189.51;105820;1281;22546;-83
2022/04/02 08:50:12;;;;;;;6.70;4.80;;;;;;;2.17;67.48;99188.01;106268;1282;25242;-82
2022/04/02 08:52:55;;;;;;;7.60;4.30;;;;;;;2.18;67.02;99192.89;106073;1282;22561;-82
2022/04/02 08:55:34;;;;;;;5.30;3.00;;;;;;;2.15;66.43;99191.82;105918;1282;22604;-82
2022/04/02 08:58:05;;;;;;;6.80;3.50;;;;;;;2.01;66.63;99198.51;105970;1281;24271;-81
2022/04/02 09:00:39;;;;;;;5.10;4.00;;;;;;;1.94;66.66;99199.52;106081;1276;24262;-81
2022/04/02 09:03:53;;;;;;;7.00;4.20;;;;;;;1.97;66.99;99204.22;106439;1279;22901;-81
2022/04/02 09:06:47;;;;;;;5.50;4.10;;;;;;;2.10;67.24;99203.77;106075;1284;23233;-81
2022/04/02 09:09:41;;;;;;;5.30;3.80;;;;;;;2.17;66.62;99204.86;106744;1278;22559;-81
2022/04/02 09:12:32;;;;;;;5.30;3.80;;;;;;;2.21;67.16;99209.92;106578;1281;22709;-82
2022/04/02 09:15:10;;;;;;;5.50;3.70;;;;;;;2.38;67.10;99202.55;107436;1277;22634;-79
2022/04/02 09:17:37;;;;;;;5.10;4.50;;;;;;;2.46;66.56;99206.39;106124;1278;22623;-78
2022/04/02 09:20:12;;;;;;;5.50;3.50;;;;;;;2.48;66.46;99206.41;105903;1278;22526;-81
2022/04/02 09:28:09;;;;;;;6.30;4.40;;;;;;;2.49;66.20;99216.84;106048;1275;25396;-83
2022/04/02 09:31:14;;;;;;;4.80;4.00;;;;;;;2.68;66.45;99215.19;106007;1278;24336;-82
2022/04/02 09:34:00;;;;;;;5.90;4.40;;;;;;;2.89;66.20;99214.58;105875;1278;22559;-78
2022/04/02 09:36:51;;;;;;;;;;;;;;;;;;;;;
2022/04/02 09:39:40;;;;;;;8.20;4.30;;;;;;;3.27;65.92;99209.45;105864;1278;23941;-82
2022/04/02 09:42:22;;;;;;;6.10;4.20;;;;;;;3.38;65.25;99207.53;106210;1272;22499;-82
2022/04/02 09:45:03;;;;;;;4.80;4.10;;;;;;;3.47;65.22;99206.86;106332;1273;23123;-81
2022/04/02 09:47:46;;;;;;;6.10;5.30;;;;;;;3.53;64.59;99204.77;106632;1271;22541;-82
2022/04/02 09:50:21;;;;;;;6.50;4.50;;;;;;;3.56;64.57;99205.48;106065;1277;22598;-75
2022/04/02 09:52:53;;;;;;;5.80;4.60;;;;;;;3.65;64.55;99209.30;106088;1277;24348;-83
2022/04/02 09:55:45;;;;;;;7.00;4.60;;;;;;;3.81;64.73;99209.30;106158;1275;25242;-79
2022/04/02 09:58:53;;;;;;;6.00;4.90;;;;;;;3.95;64.15;99214.34;105972;1274;25348;-81
2022/04/02 10:01:34;;;;;;;8.00;4.30;;;;;;;4.15;64.04;99220.41;105934;1275;25484;-79
2022/04/02 10:04:33;;;;;;;9.30;5.20;;;;;;;4.24;63.60;99214.80;106017;1274;26532;-80
2022/04/02 10:07:04;;;;;;;6.80;4.70;;;;;;;4.26;63.27;99212.19;105604;1278;22574;-80
2022/04/02 10:09:35;;;;;;;7.20;4.80;;;;;;;4.32;63.36;99213.76;106042;1275;23116;-82
2022/04/02 10:12:03;;;;;;;6.40;5.40;;;;;;;4.28;62.91;99214.11;106079;1277;22843;-79
2022/04/02 10:14:34;;;;;;;7.40;4.80;;;;;;;4.34;63.11;99213.22;106146;1277;22623;-80
2022/04/02 10:17:07;;;;;;;5.70;4.30;;;;;;;4.40;62.90;99211.11;106025;1279;25509;-81
2022/04/02 10:19:40;;;;;;;6.60;5.00;;;;;;;4.21;62.06;99212.73;106135;1277;22526;-82
2022/04/02 10:22:10;;;;;;;6.80;5.40;;;;;;;4.20;62.64;99213.77;106563;1274;22606;-78
2022/04/02 10:25:00;;;;;;;6.80;4.90;;;;;;;4.31;62.87;99216.02;106370;1271;24303;-85
2022/04/02 10:27:33;;;;;;;8.60;5.00;;;;;;;4.38;62.44;99213.03;106251;1274;22529;-82
2022/04/02 10:30:00;;;;;;;7.80;5.40;;;;;;;4.42;62.44;99214.42;105949;1277;22624;-82
2022/04/02 10:32:37;;;;;;;6.00;4.70;;;;;;;4.45;61.98;99211.62;106056;1276;24181;-80
2022/04/02 10:35:10;;;;;;;6.00;4.90;;;;;;;4.50;62.17;99214.57;106362;1277;22567;-83
2022/04/02 10:38:32;;;;;;;7.50;5.10;;;;;;;4.59;62.17;99215.75;106336;1278;24280;-86
2022/04/02 10:41:06;;;;;;;8.70;6.00;;;;;;;4.71;61.96;99219.02;105740;1281;22763;-82
2022/04/02 10:43:57;;;;;;;10.20;5.10;;;;;;;4.80;61.72;99216.37;105573;1284;22592;-81
2022/04/02 10:46:26;;;;;;;6.80;4.80;;;;;;;4.84;61.75;99220.02;105248;1282;22597;-85
2022/04/02 10:48:59;;;;;;;9.00;5.60;;;;;;;4.92;61.40;99219.46;105869;1281;23193;-84
2022/04/02 10:51:30;;;;;;;7.50;5.70;;;;;;;4.95;61.25;99220.50;105829;1278;22502;-83
2022/04/02 10:54:09;;;;;;;7.70;5.70;;;;;;;4.97;61.10;99222.92;106206;1280;24192;-85
2022/04/02 10:56:46;;;;;;;6.00;5.10;;;;;;;5.04;61.23;99223.23;106468;1277;22568;-83
2022/04/02 10:59:18;;;;;;;8.40;5.90;;;;;;;5.19;61.20;99224.20;106309;1281;25381;-85
2022/04/02 11:01:52;;;;;;;5.60;4.80;;;;;;;5.35;60.92;99225.15;106005;1282;22551;-84
2022/04/02 11:04:32;;;;;;;7.30;5.60;;;;;;;5.45;60.69;99221.94;105892;1281;24267;-83
2022/04/02 11:07:01;;;;;;;7.60;5.40;;;;;;;5.60;60.52;99220.27;105949;1281;22853;-83
2022/04/02 11:09:40;;;;;;;6.60;5.20;;;;;;;5.72;60.05;99219.30;106715;1271;22480;-82
2022/04/02 11:12:18;;;;;;;9.00;5.70;;;;;;;5.66;59.33;99220.91;107569;1277;25437;-81
2022/04/02 11:14:52;;;;;;;8.60;6.00;;;;;;;5.67;59.19;99218.64;108351;1277;22771;-82
2022/04/02 11:17:55;;;;;;;8.00;6.10;;;;;;;5.78;59.06;99217.14;108689;1277;22818;-82
2022/04/02 11:20:28;;;;;;;10.30;5.80;;;;;;;5.88;58.39;99212.70;107748;1282;22604;-82
2022/04/02 11:22:57;;;;;;;8.70;5.20;;;;;;;5.99;58.19;99214.17;107724;1282;23979;-82
2022/04/02 11:25:36;;;;;;;11.70;5.30;;;;;;;6.12;57.70;99212.33;108455;1285;23052;-81
2022/04/02 11:28:12;;;;;;;6.70;5.20;;;;;;;6.16;57.02;99213.34;107185;1287;22678;-84
2022/04/02 11:30:43;;;;;;;6.70;5.10;;;;;;;6.23;56.75;99210.82;107059;1287;24444;-82
2022/04/02 11:33:22;;;;;;;10.50;5.30;;;;;;;6.32;56.27;99211.07;107804;1286;22586;-82
2022/04/02 11:35:53;;;;;;;7.00;5.60;;;;;;;6.46;56.09;99210.94;106167;1287;24734;-77
2022/04/02 11:38:52;;;;;;;9.10;6.10;;;;;;;6.56;55.94;99206.44;106850;1274;22549;-82
2022/04/02 11:41:41;;;;;;;7.70;4.90;;;;;;;6.61;55.15;99206.23;108191;1281;22635;-82
2022/04/02 11:44:11;;;;;;;6.00;5.10;;;;;;;6.59;54.79;99210.25;107059;1287;26604;-84
2022/04/02 11:46:59;;;;;;;7.50;5.00;;;;;;;6.61;54.61;99208.65;105072;1290;22561;-82
2022/04/02 11:49:29;;;;;;;7.00;4.80;;;;;;;6.61;54.00;99214.27;104315;1294;26529;-80
2022/04/02 11:52:20;;;;;;;11.20;4.80;;;;;;;6.55;54.10;99213.80;105083;1293;25280;-80
2022/04/02 11:54:52;;;;;;;7.40;5.20;;;;;;;6.46;53.99;99213.02;104497;1300;27100;-82
2022/04/02 11:57:20;;;;;;;7.40;5.30;;;;;;;6.47;53.91;99213.55;104697;1300;24264;-81
2022/04/02 11:59:53;;;;;;;6.60;5.80;;;;;;;6.52;54.07;99210.52;104200;1300;23836;-81
2022/04/02 12:02:38;;;;;;;7.10;6.00;;;;;;;6.62;54.05;99211.45;104271;1299;22735;-83
2022/04/02 12:05:07;;;;;;;8.20;5.80;;;;;;;6.65;53.70;99212.29;104286;1294;22607;-82
2022/04/02 12:07:38;;;;;;;8.80;6.00;;;;;;;6.69;53.65;99209.62;104505;1290;22992;-82
2022/04/02 12:10:27;;;;;;;8.30;6.30;;;;;;;6.75;53.54;99208.67;104808;1290;23062;-82
2022/04/02 12:12:58;;;;;;;10.30;5.80;;;;;;;6.72;53.04;99206.96;104620;1287;24211;-78